createdAt,value
2023-02-21T00:00:18.259Z,9.00
2023-02-21T00:03:08.556Z,8.80
2023-02-21T00:06:01.521Z,8.98
2023-02-21T00:08:50.172Z,9.28
2023-02-21T00:11:38.456Z,8.73
2023-02-21T00:14:26.987Z,9.93
2023-02-21T00:17:16.430Z,9.08
2023-02-21T00:20:06.261Z,9.13
2023-02-21T00:22:54.663Z,9.67
2023-02-21T00:25:45.972Z,8.88
2023-02-21T00:28:35.558Z,8.55
2023-02-21T00:31:25.152Z,9.68
2023-02-21T00:34:15.476Z,8.65
2023-02-21T00:37:05.666Z,9.10
2023-02-21T00:39:55.187Z,10.48
2023-02-21T00:42:44.712Z,9.75
2023-02-21T00:45:36.536Z,9.18
2023-02-21T00:48:28.715Z,10.70
2023-02-21T00:51:20.271Z,10.13
2023-02-21T00:54:10.339Z,10.15
2023-02-21T00:56:59.421Z,10.13
2023-02-21T00:59:47.665Z,9.03
2023-02-21T01:02:38.289Z,10.08
2023-02-21T01:05:27.724Z,10.88
2023-02-21T01:08:16.707Z,11.38
2023-02-21T01:11:05.777Z,9.50
2023-02-21T01:13:55.061Z,11.03
2023-02-21T01:16:43.322Z,11.12
2023-02-21T01:19:33.103Z,10.95
2023-02-21T01:22:25.942Z,11.57
2023-02-21T01:25:16.692Z,11.97
2023-02-21T01:28:05.089Z,12.25
2023-02-21T01:30:54.230Z,12.75
2023-02-21T01:33:44.567Z,11.50
2023-02-21T01:36:38.162Z,12.60
2023-02-21T01:39:29.851Z,13.65
2023-02-21T01:42:19.134Z,14.50
2023-02-21T01:45:08.456Z,13.18
2023-02-21T01:47:56.993Z,14.73
2023-02-21T01:50:49.585Z,13.13
2023-02-21T01:53:41.932Z,14.90
2023-02-21T01:56:32.185Z,15.18
2023-02-21T01:59:21.348Z,15.83
2023-02-21T02:02:20.404Z,14.87
2023-02-21T02:05:10.203Z,14.98
2023-02-21T02:07:59.404Z,14.35
2023-02-21T02:10:49.903Z,14.45
2023-02-21T02:13:39.197Z,14.78
2023-02-21T02:16:27.776Z,15.18
2023-02-21T02:19:19.688Z,15.43
2023-02-21T02:21:56.424Z,14.73
2023-02-21T02:24:29.961Z,15.35
2023-02-21T02:27:27.033Z,16.00
2023-02-21T02:30:10.213Z,16.70
2023-02-21T02:33:01.354Z,16.60
2023-02-21T02:35:53.383Z,15.95
2023-02-21T02:38:58.394Z,16.85
2023-02-21T02:41:43.772Z,17.12
2023-02-21T02:44:23.672Z,16.27
2023-02-21T02:46:57.212Z,14.20
2023-02-21T02:49:30.971Z,15.63
2023-02-21T02:52:10.620Z,16.37
2023-02-21T02:54:41.968Z,14.80
2023-02-21T02:57:13.731Z,14.85
2023-02-21T02:59:47.736Z,15.63
2023-02-21T03:02:29.300Z,17.45
2023-02-21T03:05:16.134Z,18.37
2023-02-21T03:08:07.807Z,15.90
2023-02-21T03:10:54.530Z,17.25
2023-02-21T03:13:33.861Z,14.87
2023-02-21T03:16:14.020Z,16.97
2023-02-21T03:18:50.399Z,15.45
2023-02-21T03:21:23.927Z,15.00
2023-02-21T03:23:57.665Z,17.48
2023-02-21T03:26:31.518Z,16.02
2023-02-21T03:29:06.687Z,16.57
2023-02-21T03:31:40.465Z,14.80
2023-02-21T03:34:11.905Z,16.48
2023-02-21T03:36:43.815Z,15.63
2023-02-21T03:39:14.658Z,13.80
2023-02-21T03:41:45.245Z,15.43
2023-02-21T03:44:18.205Z,14.58
2023-02-21T03:46:48.959Z,15.80
2023-02-21T03:49:22.126Z,13.13
2023-02-21T03:51:59.551Z,15.40
2023-02-21T03:54:31.018Z,12.43
2023-02-21T03:57:04.026Z,13.60
2023-02-21T03:59:35.656Z,14.55
2023-02-21T04:02:06.388Z,11.78
2023-02-21T04:04:36.926Z,11.30
2023-02-21T04:07:07.703Z,12.23
2023-02-21T04:09:39.620Z,13.80
2023-02-21T04:12:10.686Z,13.45
2023-02-21T04:14:41.421Z,12.88
2023-02-21T04:17:13.398Z,12.20
2023-02-21T04:19:44.241Z,13.48
2023-02-21T04:22:14.785Z,11.57
2023-02-21T04:24:47.632Z,12.30
2023-02-21T04:27:21.745Z,11.97
2023-02-21T04:29:53.796Z,11.15
2023-02-21T04:32:27.352Z,12.60
2023-02-21T04:34:57.825Z,12.18
2023-02-21T04:37:29.598Z,11.73
2023-02-21T04:40:00.236Z,12.35
2023-02-21T04:42:30.873Z,11.65
2023-02-21T04:45:01.685Z,11.95
2023-02-21T04:47:32.233Z,13.90
2023-02-21T04:50:02.885Z,12.73
2023-02-21T04:52:33.640Z,12.82
2023-02-21T04:55:05.632Z,13.25
2023-02-21T04:57:36.323Z,15.40
2023-02-21T05:00:11.206Z,14.85
2023-02-21T05:02:44.754Z,14.93
2023-02-21T05:05:15.497Z,14.60
2023-02-21T05:07:51.112Z,14.45
2023-02-21T05:10:22.186Z,13.55
2023-02-21T05:12:53.828Z,16.48
2023-02-21T05:15:24.406Z,15.65
2023-02-21T05:17:55.378Z,18.10
2023-02-21T05:20:27.536Z,15.32
2023-02-21T05:23:08.152Z,18.32
2023-02-21T05:25:31.768Z,16.45
2023-02-21T05:28:02.293Z,16.93
2023-02-21T05:30:34.165Z,16.15
2023-02-21T05:33:06.570Z,16.37
2023-02-21T05:35:37.033Z,14.90
2023-02-21T05:38:08.126Z,15.40
2023-02-21T05:40:40.347Z,17.23
2023-02-21T05:43:12.822Z,14.63
2023-02-21T05:45:43.522Z,16.07
2023-02-21T05:48:14.562Z,16.32
2023-02-21T05:50:46.640Z,16.48
2023-02-21T05:53:18.897Z,16.60
2023-02-21T05:55:49.487Z,17.55
2023-02-21T05:58:21.396Z,14.73
2023-02-21T06:00:53.138Z,15.13
2023-02-21T06:03:23.696Z,13.20
2023-02-21T06:05:55.210Z,13.60
2023-02-21T06:08:25.903Z,15.85
2023-02-21T06:10:56.422Z,15.05
2023-02-21T06:13:28.731Z,18.10
2023-02-21T06:16:00.372Z,17.60
2023-02-21T06:18:33.201Z,18.32
2023-02-21T06:21:04.914Z,16.85
2023-02-21T06:23:35.971Z,14.70
2023-02-21T06:26:07.069Z,14.45
2023-02-21T06:28:39.680Z,12.80
2023-02-21T06:31:10.861Z,15.03
2023-02-21T06:33:44.067Z,13.65
2023-02-21T06:36:18.873Z,13.93
2023-02-21T06:38:52.599Z,12.45
2023-02-21T06:41:27.426Z,14.45
2023-02-21T06:44:01.443Z,12.40
2023-02-21T06:46:33.023Z,11.22
2023-02-21T06:49:04.554Z,14.00
2023-02-21T06:51:40.498Z,11.40
2023-02-21T06:54:11.095Z,12.73
2023-02-21T06:56:41.569Z,10.95
2023-02-21T06:59:13.701Z,10.43
2023-02-21T07:01:44.952Z,9.15
2023-02-21T07:04:15.907Z,10.10
2023-02-21T07:06:47.782Z,10.10
2023-02-21T07:09:18.487Z,12.20
2023-02-21T07:11:50.532Z,12.60
2023-02-21T07:14:26.710Z,13.38
2023-02-21T07:16:56.525Z,11.83
2023-02-21T07:19:27.172Z,10.40
2023-02-21T07:21:59.300Z,8.68
2023-02-21T07:24:36.375Z,10.15
2023-02-21T07:27:07.226Z,9.23
2023-02-21T07:29:39.493Z,10.53
2023-02-21T07:32:10.353Z,10.20
2023-02-21T07:34:43.466Z,9.53
2023-02-21T07:37:16.080Z,7.05
2023-02-21T07:39:46.508Z,8.08
2023-02-21T07:42:19.810Z,8.00
2023-02-21T07:44:52.277Z,6.28
2023-02-21T07:47:26.903Z,5.65
2023-02-21T07:49:59.512Z,5.75
2023-02-21T07:52:32.545Z,5.83
2023-02-21T07:55:03.920Z,4.53
2023-02-21T07:57:36.393Z,5.15
2023-02-21T08:00:08.972Z,5.30
2023-02-21T08:02:42.067Z,5.12
2023-02-21T08:05:12.556Z,4.05
2023-02-21T08:07:45.000Z,6.00
2023-02-21T08:10:22.783Z,4.45
2023-02-21T08:12:53.620Z,3.85
2023-02-21T08:15:24.431Z,4.78
2023-02-21T08:17:54.993Z,4.37
2023-02-21T08:20:25.587Z,2.87
2023-02-21T08:22:56.157Z,2.85
2023-02-21T08:25:29.279Z,4.25
2023-02-21T08:27:59.839Z,2.08
2023-02-21T08:30:30.527Z,2.10
2023-02-21T08:33:06.195Z,1.77
2023-02-21T08:35:38.627Z,2.10
2023-02-21T08:38:12.169Z,1.82
2023-02-21T08:40:43.334Z,2.08
2023-02-21T08:43:14.102Z,1.80
2023-02-21T08:45:44.573Z,2.00
2023-02-21T08:48:20.799Z,1.70
2023-02-21T08:50:53.216Z,2.00
2023-02-21T08:53:25.354Z,2.70
2023-02-21T08:55:57.408Z,1.60
2023-02-21T08:58:29.444Z,2.65
2023-02-21T09:01:00.004Z,1.72
2023-02-21T09:03:32.956Z,2.05
2023-02-21T09:06:03.855Z,1.52
2023-02-21T09:08:38.888Z,8.38
2023-02-21T09:11:10.580Z,3.65
2023-02-21T09:13:42.823Z,4.05
2023-02-21T09:16:13.635Z,4.05
2023-02-21T09:18:44.973Z,1.35
2023-02-21T09:21:16.906Z,2.52
2023-02-21T09:23:48.632Z,3.80
2023-02-21T09:26:20.458Z,2.35
2023-02-21T09:28:54.120Z,3.47
2023-02-21T09:31:27.376Z,2.90
2023-02-21T09:33:58.672Z,4.40
2023-02-21T09:36:29.407Z,3.08
2023-02-21T09:39:00.166Z,4.15
2023-02-21T09:41:30.870Z,5.10
2023-02-21T09:44:03.853Z,2.83
2023-02-21T09:46:46.181Z,6.67
2023-02-21T09:49:25.704Z,4.80
2023-02-21T09:51:57.458Z,6.05
2023-02-21T09:54:37.048Z,3.52
2023-02-21T09:57:10.663Z,4.22
2023-02-21T09:59:47.308Z,5.42
2023-02-21T10:02:40.485Z,6.35
2023-02-21T10:05:30.590Z,4.90
2023-02-21T10:08:14.544Z,5.30
2023-02-21T10:10:56.966Z,5.33
2023-02-21T10:13:45.844Z,6.87
2023-02-21T10:16:25.120Z,5.25
2023-02-21T10:19:02.220Z,4.30
2023-02-21T10:21:48.366Z,5.33
2023-02-21T10:24:22.187Z,5.90
2023-02-21T10:27:04.588Z,4.78
2023-02-21T10:29:53.457Z,5.10
2023-02-21T10:32:29.255Z,4.37
2023-02-21T10:35:01.753Z,4.65
2023-02-21T10:37:56.663Z,6.25
2023-02-21T10:40:41.503Z,7.62
2023-02-21T10:43:24.146Z,3.98
2023-02-21T10:46:15.950Z,6.47
2023-02-21T10:48:51.199Z,5.90
2023-02-21T10:51:38.617Z,6.45
2023-02-21T10:54:28.680Z,4.92
2023-02-21T10:57:03.170Z,5.17
2023-02-21T10:59:37.083Z,8.23
2023-02-21T11:02:39.143Z,7.92
2023-02-21T11:05:12.630Z,2.85
2023-02-21T11:08:00.036Z,2.80
2023-02-21T11:10:41.713Z,5.50
2023-02-21T11:13:17.672Z,4.47
2023-02-21T11:15:50.718Z,3.33
2023-02-21T11:18:31.753Z,6.42
2023-02-21T11:21:14.921Z,3.72
2023-02-21T11:24:02.994Z,4.42
2023-02-21T11:26:49.185Z,5.03
2023-02-21T11:29:26.559Z,6.15
2023-02-21T11:31:59.863Z,6.40
2023-02-21T11:34:32.002Z,4.35
2023-02-21T11:37:08.203Z,3.22
2023-02-21T11:39:42.111Z,5.20
2023-02-21T11:42:34.532Z,6.20
2023-02-21T11:45:37.550Z,3.80
2023-02-21T11:48:12.875Z,8.28
2023-02-21T11:50:59.596Z,8.63
2023-02-21T11:53:44.260Z,8.08
2023-02-21T11:56:26.871Z,7.90
2023-02-21T11:59:27.910Z,6.30
2023-02-21T12:02:08.749Z,9.23
2023-02-21T12:05:20.392Z,9.10
2023-02-21T12:08:27.296Z,8.70
2023-02-21T12:11:19.782Z,6.90
2023-02-21T12:13:53.493Z,6.72
2023-02-21T12:19:55.840Z,6.55
2023-02-21T12:22:53.798Z,7.70
2023-02-21T12:25:53.720Z,7.97
2023-02-21T12:28:48.798Z,9.25
2023-02-21T12:31:35.155Z,7.17
2023-02-21T12:34:20.702Z,10.63
2023-02-21T12:36:56.788Z,11.20
2023-02-21T12:40:02.063Z,14.38
2023-02-21T12:42:39.316Z,13.18
2023-02-21T12:45:21.895Z,19.12
2023-02-21T12:48:00.040Z,10.65
2023-02-21T12:50:36.585Z,11.50
2023-02-21T12:53:28.549Z,12.82
2023-02-21T12:56:25.268Z,12.20
2023-02-21T12:59:05.392Z,10.55
2023-02-21T13:01:53.736Z,7.62
2023-02-21T13:04:47.037Z,9.30
2023-02-21T13:07:41.045Z,7.95
2023-02-21T13:10:29.484Z,6.87
2023-02-21T13:13:11.135Z,11.80
2023-02-21T13:15:48.559Z,8.25
2023-02-21T13:18:28.546Z,9.08
2023-02-21T13:21:07.704Z,11.97
2023-02-21T13:24:21.923Z,9.00
2023-02-21T13:27:10.658Z,9.43
2023-02-21T13:29:44.402Z,8.18
2023-02-21T13:32:21.603Z,10.10
2023-02-21T13:35:03.463Z,7.00
2023-02-21T13:37:38.799Z,7.00
2023-02-21T13:40:19.592Z,8.45
2023-02-21T13:43:09.316Z,5.35
2023-02-21T13:45:41.578Z,9.13
2023-02-21T13:48:24.709Z,8.98
2023-02-21T13:51:01.303Z,6.87
2023-02-21T13:53:38.548Z,8.35
2023-02-21T13:56:17.395Z,6.78
2023-02-21T13:59:03.233Z,9.08
2023-02-21T14:01:39.987Z,8.43
2023-02-21T14:04:47.140Z,8.10
2023-02-21T14:07:18.878Z,6.03
2023-02-21T14:09:49.535Z,7.97
2023-02-21T14:12:24.387Z,9.15
2023-02-21T14:14:58.063Z,12.73
2023-02-21T14:17:37.092Z,10.68
2023-02-21T14:20:09.519Z,14.03
2023-02-21T14:22:43.334Z,9.08
2023-02-21T14:25:23.045Z,9.68
2023-02-21T14:27:56.744Z,8.83
2023-02-21T14:30:33.677Z,10.05
2023-02-21T14:33:24.892Z,7.95
2023-02-21T14:36:10.146Z,7.22
2023-02-21T14:38:44.780Z,11.75
2023-02-21T14:41:42.846Z,8.18
2023-02-21T14:44:35.580Z,9.10
2023-02-21T14:47:33.836Z,10.40
2023-02-21T14:50:17.022Z,8.40
2023-02-21T14:53:05.418Z,9.65
2023-02-21T14:56:04.246Z,9.45
2023-02-21T14:58:47.495Z,8.98
2023-02-21T15:01:39.002Z,9.18
2023-02-21T15:04:32.589Z,10.43
2023-02-21T15:07:20.697Z,9.60
2023-02-21T15:10:24.202Z,9.23
2023-02-21T15:13:03.823Z,8.65
2023-02-21T15:15:46.393Z,7.70
2023-02-21T15:18:33.377Z,8.15
2023-02-21T15:21:09.833Z,11.93
2023-02-21T15:23:43.445Z,11.75
2023-02-21T15:26:30.762Z,12.00
2023-02-21T15:29:20.068Z,5.80
2023-02-21T15:31:57.480Z,6.85
2023-02-21T15:34:44.017Z,9.20
2023-02-21T15:37:28.212Z,7.78
2023-02-21T15:40:05.084Z,10.72
2023-02-21T15:42:39.118Z,12.80
2023-02-21T15:45:13.396Z,10.32
2023-02-21T15:47:48.836Z,9.73
2023-02-21T15:50:35.698Z,13.60
2023-02-21T15:53:23.400Z,8.58
2023-02-21T15:55:58.396Z,7.37
2023-02-21T15:58:41.797Z,10.75
2023-02-21T16:01:16.284Z,9.45
2023-02-21T16:04:03.848Z,7.37
2023-02-21T16:06:40.058Z,9.10
2023-02-21T16:09:24.551Z,13.98
2023-02-21T16:12:04.586Z,10.82
2023-02-21T16:14:55.053Z,11.33
2023-02-21T16:17:36.923Z,13.90
2023-02-21T16:20:21.332Z,9.95
2023-02-21T16:23:17.907Z,10.05
2023-02-21T16:26:00.778Z,11.70
2023-02-21T16:28:32.442Z,9.68
2023-02-21T16:31:08.621Z,13.72
2023-02-21T16:33:42.725Z,10.72
2023-02-21T16:36:29.068Z,10.28
2023-02-21T16:39:00.557Z,12.00
2023-02-21T16:41:32.947Z,14.30
2023-02-21T16:44:05.227Z,12.35
2023-02-21T16:46:35.856Z,13.10
2023-02-21T16:49:15.048Z,10.35
2023-02-21T16:51:49.018Z,10.85
2023-02-21T16:54:19.622Z,13.95
2023-02-21T16:56:54.327Z,11.45
2023-02-21T16:59:26.310Z,14.40
2023-02-21T17:02:01.687Z,14.47
2023-02-21T17:04:36.219Z,15.13
2023-02-21T17:07:10.365Z,13.55
2023-02-21T17:09:45.140Z,12.68
2023-02-21T17:12:15.790Z,9.93
2023-02-21T17:14:46.503Z,14.00
2023-02-21T17:17:17.707Z,11.57
2023-02-21T17:19:48.243Z,16.90
2023-02-21T17:22:30.543Z,16.42
2023-02-21T17:25:01.789Z,10.90
2023-02-21T17:27:40.941Z,14.80
2023-02-21T17:30:14.096Z,11.00
2023-02-21T17:32:47.565Z,9.78
2023-02-21T17:35:20.416Z,14.15
2023-02-21T17:37:51.734Z,13.05
2023-02-21T17:40:24.686Z,12.65
2023-02-21T17:42:56.068Z,10.43
2023-02-21T17:45:27.319Z,12.10
2023-02-21T17:47:59.417Z,9.98
2023-02-21T17:50:31.591Z,16.95
2023-02-21T17:53:02.256Z,12.58
2023-02-21T17:55:34.115Z,15.28
2023-02-21T17:58:09.748Z,12.85
2023-02-21T18:00:45.401Z,15.60
2023-02-21T18:03:16.082Z,14.35
2023-02-21T18:05:54.659Z,10.93
2023-02-21T18:08:21.613Z,15.70
2023-02-21T18:10:52.336Z,12.82
2023-02-21T18:16:17.354Z,13.28
2023-02-21T18:18:51.208Z,15.48
2023-02-21T18:21:24.992Z,12.88
2023-02-21T18:23:57.531Z,14.33
2023-02-21T18:26:30.717Z,16.32
2023-02-21T18:29:02.662Z,15.75
2023-02-21T18:31:35.000Z,14.55
2023-02-21T18:34:07.559Z,17.20
2023-02-21T18:36:42.000Z,20.05
2023-02-21T18:39:15.255Z,15.75
2023-02-21T18:41:46.681Z,20.40
2023-02-21T18:44:19.470Z,15.85
2023-02-21T18:46:59.585Z,19.07
2023-02-21T18:49:33.768Z,10.28
2023-02-21T18:52:06.064Z,14.95
2023-02-21T18:54:38.577Z,13.85
2023-02-21T18:57:11.750Z,15.50
2023-02-21T18:59:44.911Z,17.32
2023-02-21T19:02:18.886Z,15.20
2023-02-21T19:04:51.081Z,14.43
2023-02-21T19:07:23.074Z,22.93
2023-02-21T19:09:55.162Z,17.02
2023-02-21T19:12:26.615Z,16.57
2023-02-21T19:15:02.113Z,13.80
2023-02-21T19:17:33.228Z,12.50
2023-02-21T19:20:06.458Z,14.90
2023-02-21T19:22:37.164Z,12.68
2023-02-21T19:25:08.433Z,11.43
2023-02-21T19:27:39.749Z,13.70
2023-02-21T19:30:12.034Z,12.65
2023-02-21T19:32:45.628Z,15.93
2023-02-21T19:35:18.884Z,17.12
2023-02-21T19:37:57.537Z,35.15
2023-02-21T19:40:25.233Z,16.45
2023-02-21T19:42:55.777Z,17.67
2023-02-21T19:45:28.026Z,12.58
2023-02-21T19:47:58.855Z,16.40
2023-02-21T19:50:31.225Z,18.48
2023-02-21T19:53:03.166Z,12.15
2023-02-21T19:55:36.320Z,13.65
2023-02-21T19:58:09.023Z,12.75
2023-02-21T20:00:42.469Z,17.82
2023-02-21T20:03:14.611Z,15.00
2023-02-21T20:05:45.670Z,14.23
2023-02-21T20:08:16.623Z,14.55
2023-02-21T20:10:53.906Z,17.00
2023-02-21T20:13:26.306Z,15.63
2023-02-21T20:16:03.732Z,13.43
2023-02-21T20:18:37.103Z,16.37
2023-02-21T20:21:14.490Z,14.33
2023-02-21T20:23:42.297Z,13.55
2023-02-21T20:26:17.384Z,17.65
2023-02-21T20:28:51.690Z,16.75
2023-02-21T20:31:28.230Z,14.15
2023-02-21T20:34:02.146Z,13.28
2023-02-21T20:36:38.060Z,12.98
2023-02-21T20:39:13.235Z,17.45
2023-02-21T20:41:46.826Z,15.85
2023-02-21T20:44:17.413Z,15.43
2023-02-21T20:46:51.484Z,13.62
2023-02-21T20:49:26.728Z,13.22
2023-02-21T20:51:59.202Z,14.00
2023-02-21T20:54:31.249Z,15.08
2023-02-21T20:57:03.622Z,17.23
2023-02-21T20:59:39.089Z,13.05
2023-02-21T21:02:11.138Z,16.60
2023-02-21T21:04:45.738Z,13.30
2023-02-21T21:07:24.979Z,15.50
2023-02-21T21:09:58.623Z,14.38
2023-02-21T21:12:31.786Z,15.63
2023-02-21T21:15:08.202Z,16.57
2023-02-21T21:17:43.824Z,17.85
2023-02-21T21:20:20.481Z,13.22
2023-02-21T21:22:53.805Z,16.85
2023-02-21T21:25:25.867Z,15.30
2023-02-21T21:27:56.353Z,12.18
2023-02-21T21:30:28.999Z,14.47
2023-02-21T21:33:04.085Z,19.82
2023-02-21T21:35:37.216Z,21.10
2023-02-21T21:38:11.669Z,15.93
2023-02-21T21:40:47.148Z,16.07
2023-02-21T21:43:18.815Z,13.28
2023-02-21T21:48:20.544Z,18.30
2023-02-21T21:50:50.961Z,14.35
2023-02-21T21:53:24.818Z,14.43
2023-02-21T21:55:56.660Z,14.00
2023-02-21T21:58:27.090Z,16.45
2023-02-21T22:01:00.731Z,13.60
2023-02-21T22:03:31.219Z,15.72
2023-02-21T22:06:02.812Z,16.73
2023-02-21T22:08:33.648Z,21.70
2023-02-21T22:11:04.114Z,21.07
2023-02-21T22:13:36.134Z,15.75
2023-02-21T22:16:09.223Z,14.23
2023-02-21T22:18:42.013Z,15.95
2023-02-21T22:21:15.673Z,19.45
2023-02-21T22:23:48.030Z,18.25
2023-02-21T22:26:25.272Z,22.82
2023-02-21T22:28:58.095Z,14.18
2023-02-21T22:31:29.360Z,15.05
2023-02-21T22:34:03.187Z,10.35
2023-02-21T22:36:35.681Z,12.10
2023-02-21T22:39:11.516Z,16.55
2023-02-21T22:41:43.500Z,14.33
2023-02-21T22:44:17.076Z,19.12
2023-02-21T22:46:57.735Z,15.48
2023-02-21T22:49:30.686Z,11.48
2023-02-21T22:52:01.097Z,16.45
2023-02-21T22:54:32.305Z,15.85
2023-02-21T22:57:04.693Z,14.43
2023-02-21T22:59:35.471Z,12.35
2023-02-21T23:02:06.209Z,12.50
2023-02-21T23:04:39.798Z,13.70
2023-02-21T23:07:11.409Z,14.47
2023-02-21T23:09:44.037Z,17.30
2023-02-21T23:12:15.752Z,19.70
2023-02-21T23:14:49.745Z,15.35
2023-02-21T23:17:20.913Z,14.90
2023-02-21T23:19:53.712Z,10.60
2023-02-21T23:22:25.593Z,14.07
2023-02-21T23:24:56.348Z,17.50
2023-02-21T23:27:27.378Z,14.28
2023-02-21T23:30:00.479Z,16.97
2023-02-21T23:32:31.793Z,12.78
2023-02-21T23:35:02.748Z,17.65
2023-02-21T23:37:33.249Z,17.25
2023-02-21T23:40:05.390Z,18.48
2023-02-21T23:42:38.196Z,13.32
2023-02-21T23:45:18.762Z,18.23
2023-02-21T23:47:53.457Z,20.52
2023-02-21T23:50:28.257Z,15.05
2023-02-21T23:53:02.989Z,16.62
2023-02-21T23:55:36.612Z,15.83
2023-02-21T23:58:12.820Z,14.03
